createdAt,value
2023-04-05T00:00:28.123Z,102506.59
2023-04-05T00:02:55.970Z,102503.09
2023-04-05T00:05:30.333Z,102498.84
2023-04-05T00:07:57.584Z,102506.44
2023-04-05T00:10:24.601Z,102502.53
2023-04-05T00:12:51.519Z,102505.41
2023-04-05T00:15:19.067Z,102497.66
2023-04-05T00:17:47.106Z,102499.34
2023-04-05T00:20:14.705Z,102502.66
2023-04-05T00:22:44.523Z,102499.06
2023-04-05T00:25:11.426Z,102495.16
2023-04-05T00:27:38.572Z,102497.44
2023-04-05T00:30:07.420Z,102493.66
2023-04-05T00:32:34.359Z,102492.22
2023-04-05T00:35:01.319Z,102500.25
2023-04-05T00:37:28.365Z,102495.09
2023-04-05T00:39:57.496Z,102497.88
2023-04-05T00:42:24.485Z,102496.31
2023-04-05T00:44:51.340Z,102495.72
2023-04-05T00:47:18.318Z,102492.41
2023-04-05T00:49:46.189Z,102498.75
2023-04-05T00:52:14.553Z,102488.50
2023-04-05T00:54:43.283Z,102490.69
2023-04-05T00:57:11.990Z,102490.34
2023-04-05T00:59:38.908Z,102485.59
2023-04-05T01:02:13.494Z,102486.91
2023-04-05T01:04:49.905Z,102482.16
2023-04-05T01:07:28.763Z,102481.84
2023-04-05T01:09:59.135Z,102477.66
2023-04-05T01:12:33.503Z,102470.16
2023-04-05T01:15:01.320Z,102470.41
2023-04-05T01:17:36.601Z,102478.16
2023-04-05T01:20:10.633Z,102474.81
2023-04-05T01:23:13.741Z,102473.63
2023-04-05T01:26:41.041Z,102469.47
2023-04-05T01:29:45.275Z,102470.81
2023-04-05T01:32:25.107Z,102471.63
2023-04-05T01:35:04.474Z,102470.91
2023-04-05T01:37:35.239Z,102465.09
2023-04-05T01:40:04.605Z,102469.59
2023-04-05T01:42:31.741Z,102471.53
2023-04-05T01:45:00.159Z,102464.72
2023-04-05T01:47:27.180Z,102467.63
2023-04-05T01:49:54.141Z,102470.34
2023-04-05T01:52:21.106Z,102465.69
2023-04-05T01:54:48.005Z,102460.78
2023-04-05T01:57:14.960Z,102461.13
2023-04-05T01:59:41.867Z,102458.56
2023-04-05T02:02:11.113Z,102458.56
2023-04-05T02:04:37.999Z,102453.38
2023-04-05T02:07:04.861Z,102450.38
2023-04-05T02:09:31.733Z,102452.88
2023-04-05T02:11:58.673Z,102452.72
2023-04-05T02:14:25.896Z,102447.38
2023-04-05T02:16:56.604Z,102451.53
2023-04-05T02:19:26.022Z,102450.56
2023-04-05T02:21:56.281Z,102446.28
2023-04-05T02:24:23.133Z,102442.81
2023-04-05T02:26:51.104Z,102444.97
2023-04-05T02:29:17.988Z,102448.44
2023-04-05T02:31:44.919Z,102440.44
2023-04-05T02:34:11.817Z,102443.91
2023-04-05T02:36:41.828Z,102443.91
2023-04-05T02:39:08.745Z,102443.19
2023-04-05T02:41:36.335Z,102438.56
2023-04-05T02:44:03.223Z,102443.88
2023-04-05T02:46:30.111Z,102435.19
2023-04-05T02:48:57.017Z,102442.84
2023-04-05T02:51:24.118Z,102437.00
2023-04-05T02:53:52.962Z,102438.22
2023-04-05T02:56:21.918Z,102435.03
2023-04-05T02:58:49.327Z,102435.81
2023-04-05T03:01:17.763Z,102427.50
2023-04-05T03:03:44.688Z,102433.84
2023-04-05T03:06:11.811Z,102431.31
2023-04-05T03:08:43.870Z,102434.09
2023-04-05T03:11:13.092Z,102428.59
2023-04-05T03:13:40.661Z,102435.41
2023-04-05T03:16:07.903Z,102437.50
2023-04-05T03:18:34.856Z,102438.34
2023-04-05T03:21:01.839Z,102434.41
2023-04-05T03:23:31.420Z,102430.47
2023-04-05T03:25:59.550Z,102427.66
2023-04-05T03:28:29.773Z,102428.50
2023-04-05T03:30:56.663Z,102425.53
2023-04-05T03:33:23.611Z,102427.91
2023-04-05T03:35:50.861Z,102424.84
2023-04-05T03:38:17.955Z,102426.50
2023-04-05T03:40:45.426Z,102426.50
2023-04-05T03:43:12.643Z,102429.81
2023-04-05T03:45:41.180Z,102424.56
2023-04-05T03:48:08.389Z,102427.47
2023-04-05T03:50:35.415Z,102428.88
2023-04-05T03:53:03.251Z,102425.06
2023-04-05T03:55:31.165Z,102417.44
2023-04-05T03:57:58.036Z,102413.38
2023-04-05T04:00:24.968Z,102413.63
2023-04-05T04:02:53.377Z,102417.56
2023-04-05T04:05:21.267Z,102423.03
2023-04-05T04:07:49.013Z,102416.38
2023-04-05T04:10:17.793Z,102419.34
2023-04-05T04:12:45.735Z,102414.28
2023-04-05T04:15:12.854Z,102418.50
2023-04-05T04:17:39.945Z,102414.09
2023-04-05T04:20:12.729Z,102412.41
2023-04-05T04:22:40.455Z,102415.03
2023-04-05T04:25:10.246Z,102416.00
2023-04-05T04:27:39.634Z,102411.66
2023-04-05T04:30:10.515Z,102418.63
2023-04-05T04:32:51.554Z,102420.28
2023-04-05T04:35:24.921Z,102418.50
2023-04-05T04:37:57.742Z,102412.53
2023-04-05T04:40:27.550Z,102425.53
2023-04-05T04:42:58.787Z,102418.63
2023-04-05T04:45:26.286Z,102425.00
2023-04-05T04:47:53.710Z,102415.50
2023-04-05T04:50:22.808Z,102421.56
2023-04-05T04:52:49.773Z,102417.41
2023-04-05T04:55:16.746Z,102415.94
2023-04-05T04:57:44.066Z,102422.38
2023-04-05T05:00:14.509Z,102424.41
2023-04-05T05:02:42.687Z,102421.78
2023-04-05T05:05:11.398Z,102431.66
2023-04-05T05:07:44.394Z,102416.16
2023-04-05T05:10:12.557Z,102416.16
2023-04-05T05:12:39.512Z,102419.63
2023-04-05T05:15:08.513Z,102421.41
2023-04-05T05:17:35.551Z,102421.41
2023-04-05T05:20:05.738Z,102421.41
2023-04-05T05:22:32.703Z,102424.75
2023-04-05T05:25:01.079Z,102427.97
2023-04-05T05:27:28.314Z,102423.22
2023-04-05T05:29:55.226Z,102416.56
2023-04-05T05:32:23.034Z,102416.72
2023-04-05T05:34:49.950Z,102416.97
2023-04-05T05:37:17.149Z,102417.56
2023-04-05T05:39:44.756Z,102416.72
2023-04-05T05:42:13.106Z,102413.84
2023-04-05T05:44:40.246Z,102417.91
2023-04-05T05:47:07.247Z,102416.00
2023-04-05T05:49:34.293Z,102410.75
2023-04-05T05:52:01.271Z,102411.00
2023-04-05T05:54:28.329Z,102415.03
2023-04-05T05:56:55.188Z,102416.50
2023-04-05T05:59:23.477Z,102415.06
2023-04-05T06:01:51.163Z,102415.25
2023-04-05T06:04:19.390Z,102420.97
2023-04-05T06:06:47.770Z,102424.78
2023-04-05T06:09:15.624Z,102416.31
2023-04-05T06:11:53.244Z,102417.72
2023-04-05T06:14:24.813Z,102418.31
2023-04-05T06:16:52.165Z,102417.09
2023-04-05T06:19:19.202Z,102413.41
2023-04-05T06:21:46.250Z,102415.66
2023-04-05T06:24:13.174Z,102418.03
2023-04-05T06:26:40.086Z,102418.50
2023-04-05T06:29:07.129Z,102413.72
2023-04-05T06:31:36.245Z,102412.25
2023-04-05T06:34:03.646Z,102402.91
2023-04-05T06:36:31.972Z,102407.53
2023-04-05T06:38:59.484Z,102407.72
2023-04-05T06:41:27.591Z,102411.41
2023-04-05T06:43:55.019Z,102403.00
2023-04-05T06:46:22.312Z,102412.28
2023-04-05T06:48:51.478Z,102415.38
2023-04-05T06:51:18.892Z,102409.84
2023-04-05T06:53:46.044Z,102415.44
2023-04-05T06:56:13.126Z,102404.97
2023-04-05T06:58:41.777Z,102413.66
2023-04-05T07:01:08.787Z,102408.44
2023-04-05T07:03:36.077Z,102410.84
2023-04-05T07:06:09.764Z,102414.22
2023-04-05T07:08:37.194Z,102412.47
2023-04-05T07:11:26.667Z,102407.00
2023-04-05T07:13:53.501Z,102405.13
2023-04-05T07:16:23.160Z,102398.44
2023-04-05T07:18:51.080Z,102398.72
2023-04-05T07:21:19.263Z,102395.88
2023-04-05T07:23:46.289Z,102397.78
2023-04-05T07:26:13.312Z,102399.00
2023-04-05T07:28:40.290Z,102390.28
2023-04-05T07:31:07.883Z,102393.81
2023-04-05T07:33:34.938Z,102386.41
2023-04-05T07:36:03.227Z,102382.88
2023-04-05T07:38:31.462Z,102378.53
2023-04-05T07:40:58.648Z,102375.69
2023-04-05T07:43:27.619Z,102377.06
2023-04-05T07:46:02.180Z,102381.94
2023-04-05T07:48:29.576Z,102380.16
2023-04-05T07:51:02.439Z,102376.75
2023-04-05T07:53:30.981Z,102384.16
2023-04-05T07:55:59.015Z,102377.91
2023-04-05T07:58:25.951Z,102386.31
2023-04-05T08:00:53.631Z,102388.22
2023-04-05T08:03:20.787Z,102387.97
2023-04-05T08:05:47.802Z,102385.25
2023-04-05T08:08:14.725Z,102380.16
2023-04-05T08:10:43.120Z,102386.00
2023-04-05T08:13:10.436Z,102372.28
2023-04-05T08:15:37.482Z,102379.22
2023-04-05T08:18:04.607Z,102379.25
2023-04-05T08:20:31.606Z,102376.00
2023-04-05T08:22:58.622Z,102374.06
2023-04-05T08:25:25.574Z,102371.53
2023-04-05T08:27:53.810Z,102372.28
2023-04-05T08:30:20.768Z,102366.38
2023-04-05T08:32:47.686Z,102367.00
2023-04-05T08:35:15.043Z,102363.47
2023-04-05T08:37:41.997Z,102361.69
2023-04-05T08:40:10.266Z,102361.50
2023-04-05T08:42:46.253Z,102358.00
2023-04-05T08:45:19.157Z,102362.91
2023-04-05T08:47:49.438Z,102358.03
2023-04-05T08:50:16.530Z,102355.66
2023-04-05T08:52:50.224Z,102355.66
2023-04-05T08:55:17.383Z,102354.28
2023-04-05T08:57:51.237Z,102358.63
2023-04-05T09:00:21.082Z,102351.56
2023-04-05T09:02:56.516Z,102348.84
2023-04-05T09:05:24.419Z,102351.00
2023-04-05T09:07:51.954Z,102351.03
2023-04-05T09:10:20.998Z,102349.31
2023-04-05T09:12:51.971Z,102350.44
2023-04-05T09:15:24.270Z,102352.88
2023-04-05T09:17:52.593Z,102354.03
2023-04-05T09:20:20.352Z,102356.94
2023-04-05T09:22:47.934Z,102352.59
2023-04-05T09:25:35.469Z,102347.22
2023-04-05T09:28:05.784Z,102347.13
2023-04-05T09:30:36.920Z,102345.13
2023-04-05T09:33:07.940Z,102342.69
2023-04-05T09:35:37.509Z,102340.91
2023-04-05T09:38:05.479Z,102348.47
2023-04-05T09:40:44.762Z,102338.25
2023-04-05T09:43:14.154Z,102337.06
2023-04-05T09:45:45.873Z,102334.34
2023-04-05T09:48:13.604Z,102329.88
2023-04-05T09:50:41.042Z,102334.88
2023-04-05T09:53:15.470Z,102334.75
2023-04-05T09:55:43.764Z,102329.22
2023-04-05T09:58:19.449Z,102325.97
2023-04-05T10:01:03.302Z,102328.66
2023-04-05T10:03:48.012Z,102331.47
2023-04-05T10:06:16.639Z,102324.81
2023-04-05T10:08:46.735Z,102322.25
2023-04-05T10:11:18.233Z,102321.13
2023-04-05T10:13:46.544Z,102320.19
2023-04-05T10:16:23.086Z,102306.75
2023-04-05T10:18:53.074Z,102310.63
2023-04-05T10:21:23.755Z,102303.88
2023-04-05T10:24:04.893Z,102298.78
2023-04-05T10:26:41.270Z,102299.59
2023-04-05T10:29:17.585Z,102294.38
2023-04-05T10:31:55.521Z,102295.75
2023-04-05T10:34:35.243Z,102292.47
2023-04-05T10:37:03.515Z,102294.97
2023-04-05T10:39:40.216Z,102292.19
2023-04-05T10:42:26.934Z,102287.31
2023-04-05T10:45:04.595Z,102279.41
2023-04-05T10:47:44.798Z,102287.56
2023-04-05T10:50:22.038Z,102282.44
2023-04-05T10:52:50.652Z,102280.78
2023-04-05T10:55:18.022Z,102277.25
2023-04-05T10:57:47.098Z,102271.53
2023-04-05T11:00:16.549Z,102271.53
2023-04-05T11:02:45.165Z,102264.97
2023-04-05T11:05:37.308Z,102272.88
2023-04-05T11:08:07.023Z,102271.00
2023-04-05T11:10:39.526Z,102259.84
2023-04-05T11:13:11.004Z,102261.16
2023-04-05T11:15:38.611Z,102254.56
2023-04-05T11:18:10.646Z,102252.94
2023-04-05T11:20:51.672Z,102245.91
2023-04-05T11:23:21.047Z,102258.63
2023-04-05T11:25:52.953Z,102249.44
2023-04-05T11:28:26.168Z,102242.94
2023-04-05T11:30:58.641Z,102250.88
2023-04-05T11:33:56.384Z,102247.03
2023-04-05T11:36:45.554Z,102229.63
2023-04-05T11:39:26.037Z,102229.75
2023-04-05T11:42:03.223Z,102227.28
2023-04-05T11:44:40.431Z,102220.34
2023-04-05T11:47:08.162Z,102215.03
2023-04-05T11:49:38.094Z,102211.81
2023-04-05T11:52:17.218Z,102212.56
2023-04-05T11:54:47.075Z,102212.25
2023-04-05T11:57:19.374Z,102207.22
2023-04-05T11:59:46.557Z,102214.66
2023-04-05T12:02:13.737Z,102215.16
2023-04-05T12:04:42.031Z,102208.44
2023-04-05T12:07:14.145Z,102205.50
2023-04-05T12:10:08.589Z,102201.84
2023-04-05T12:12:38.707Z,102205.03
2023-04-05T12:15:11.973Z,102199.28
2023-04-05T12:17:44.487Z,102197.59
2023-04-05T12:20:15.552Z,102195.44
2023-04-05T12:22:45.348Z,102192.13
2023-04-05T12:25:17.101Z,102191.72
2023-04-05T12:27:45.328Z,102193.00
2023-04-05T12:30:16.387Z,102174.72
2023-04-05T12:32:45.766Z,102184.88
2023-04-05T12:35:17.139Z,102182.25
2023-04-05T12:37:44.208Z,102181.59
2023-04-05T12:40:12.415Z,102175.50
2023-04-05T12:42:41.450Z,102174.75
2023-04-05T12:45:13.001Z,102171.66
2023-04-05T12:47:52.222Z,102160.34
2023-04-05T12:50:28.358Z,102160.88
2023-04-05T12:52:58.540Z,102156.00
2023-04-05T12:55:28.178Z,102155.66
2023-04-05T12:57:59.317Z,102153.19
2023-04-05T13:00:29.220Z,102158.81
2023-04-05T13:02:59.207Z,102153.66
2023-04-05T13:05:29.888Z,102154.97
2023-04-05T13:07:57.725Z,102152.88
2023-04-05T13:10:26.275Z,102137.91
2023-04-05T13:12:53.586Z,102139.63
2023-04-05T13:15:20.930Z,102129.84
2023-04-05T13:17:49.868Z,102128.69
2023-04-05T13:20:18.218Z,102134.25
2023-04-05T13:22:46.943Z,102126.06
2023-04-05T13:25:14.691Z,102129.22
2023-04-05T13:27:41.626Z,102116.75
2023-04-05T13:30:09.911Z,102117.66
2023-04-05T13:32:36.988Z,102107.75
2023-04-05T13:35:05.660Z,102111.34
2023-04-05T13:37:32.670Z,102105.63
2023-04-05T13:40:00.847Z,102107.41
2023-04-05T13:42:28.128Z,102104.81
2023-04-05T13:44:55.219Z,102094.50
2023-04-05T13:47:23.672Z,102090.22
2023-04-05T13:49:51.002Z,102099.34
2023-04-05T13:52:18.026Z,102097.91
2023-04-05T13:54:46.168Z,102099.38
2023-04-05T13:57:14.525Z,102098.16
2023-04-05T13:59:41.869Z,102095.22
2023-04-05T14:02:09.173Z,102092.25
2023-04-05T14:04:40.582Z,102094.38
2023-04-05T14:07:08.158Z,102081.19
2023-04-05T14:09:35.485Z,102087.25
2023-04-05T14:12:02.744Z,102085.50
2023-04-05T14:14:31.085Z,102082.75
2023-04-05T14:16:58.111Z,102083.84
2023-04-05T14:19:25.360Z,102073.69
2023-04-05T14:21:52.764Z,102075.44
2023-04-05T14:24:20.041Z,102085.56
2023-04-05T14:26:50.057Z,102071.50
2023-04-05T14:29:17.726Z,102068.06
2023-04-05T14:31:46.752Z,102066.50
2023-04-05T14:34:14.294Z,102069.19
2023-04-05T14:36:41.425Z,102065.00
2023-04-05T14:39:08.857Z,102069.47
2023-04-05T14:41:38.840Z,102067.91
2023-04-05T14:44:09.577Z,102066.38
2023-04-05T14:46:36.586Z,102068.94
2023-04-05T14:49:04.897Z,102063.59
2023-04-05T14:51:32.562Z,102061.56
2023-04-05T14:53:59.740Z,102062.41
2023-04-05T14:56:26.782Z,102061.84
2023-04-05T14:58:53.832Z,102055.91
2023-04-05T15:01:21.322Z,102051.78
2023-04-05T15:03:50.950Z,102050.50
2023-04-05T15:06:20.340Z,102059.72
2023-04-05T15:08:48.111Z,102049.81
2023-04-05T15:11:15.411Z,102052.84
2023-04-05T15:13:42.412Z,102052.25
2023-04-05T15:16:10.540Z,102049.91
2023-04-05T15:18:38.650Z,102045.31
2023-04-05T15:21:08.584Z,102043.72
2023-04-05T15:23:37.145Z,102038.00
2023-04-05T15:26:04.190Z,102037.03
2023-04-05T15:28:31.272Z,102034.44
2023-04-05T15:30:58.282Z,102036.53
2023-04-05T15:33:25.366Z,102028.63
2023-04-05T15:35:52.333Z,102033.69
2023-04-05T15:38:19.326Z,102035.09
2023-04-05T15:40:52.305Z,102026.75
2023-04-05T15:43:20.498Z,102025.31
2023-04-05T15:45:47.471Z,102017.88
2023-04-05T15:48:14.550Z,102013.44
2023-04-05T15:50:43.057Z,102016.16
2023-04-05T15:53:12.799Z,102016.72
2023-04-05T15:55:39.727Z,102020.50
2023-04-05T15:58:08.190Z,102017.22
2023-04-05T16:00:35.438Z,102009.38
2023-04-05T16:03:02.627Z,102008.16
2023-04-05T16:05:29.667Z,102009.38
2023-04-05T16:07:56.763Z,102007.09
2023-04-05T16:10:23.900Z,102005.69
2023-04-05T16:12:53.192Z,102010.50
2023-04-05T16:15:21.846Z,102002.63
2023-04-05T16:17:48.844Z,102011.56
2023-04-05T16:20:17.491Z,102001.75
2023-04-05T16:22:45.597Z,102005.53
2023-04-05T16:25:12.617Z,102001.22
2023-04-05T16:27:40.377Z,102006.75
2023-04-05T16:30:10.425Z,102006.41
2023-04-05T16:32:41.594Z,102008.19
2023-04-05T16:35:09.427Z,101999.97
2023-04-05T16:37:36.317Z,101993.13
2023-04-05T16:40:04.424Z,101998.59
2023-04-05T16:42:31.381Z,101988.69
2023-04-05T16:44:58.393Z,101981.50
2023-04-05T16:47:25.647Z,101987.41
2023-04-05T16:49:53.942Z,101983.66
2023-04-05T16:52:21.017Z,101994.06
2023-04-05T16:54:48.119Z,101984.34
2023-04-05T16:57:15.452Z,101985.31
2023-04-05T16:59:42.531Z,101986.25
2023-04-05T17:02:09.740Z,101983.69
2023-04-05T17:04:37.727Z,101981.94
2023-04-05T17:07:06.092Z,101981.69
2023-04-05T17:09:33.209Z,101978.97
2023-04-05T17:12:00.137Z,101977.50
2023-04-05T17:14:27.148Z,101986.59
2023-04-05T17:16:54.864Z,101980.38
2023-04-05T17:19:21.817Z,101979.13
2023-04-05T17:21:48.988Z,101980.75
2023-04-05T17:24:17.657Z,101982.41
2023-04-05T17:26:45.200Z,101982.41
2023-04-05T17:29:13.482Z,101984.81
2023-04-05T17:31:41.840Z,101977.75
2023-04-05T17:34:12.961Z,101980.53
2023-04-05T17:36:40.515Z,101982.78
2023-04-05T17:39:07.636Z,101982.28
2023-04-05T17:41:36.114Z,101981.72
2023-04-05T17:44:03.462Z,101977.81
2023-04-05T17:46:41.344Z,101974.78
2023-04-05T17:49:11.654Z,101970.91
2023-04-05T17:51:38.914Z,101981.81
2023-04-05T17:54:06.079Z,101974.28
2023-04-05T17:56:33.108Z,101976.16
2023-04-05T17:59:01.365Z,101973.41
2023-04-05T18:01:29.299Z,101970.63
2023-04-05T18:03:56.997Z,101973.97
2023-04-05T18:06:24.097Z,101979.00
2023-04-05T18:08:51.296Z,101976.88
2023-04-05T18:11:18.326Z,101983.75
2023-04-05T18:13:45.308Z,101981.63
2023-04-05T18:16:13.560Z,101984.59
2023-04-05T18:18:40.554Z,101988.44
2023-04-05T18:21:07.503Z,101989.59
2023-04-05T18:23:34.421Z,101991.94
2023-04-05T18:26:09.571Z,101987.34
2023-04-05T18:28:36.605Z,101988.66
2023-04-05T18:31:03.629Z,102000.63
2023-04-05T18:33:31.836Z,101997.66
2023-04-05T18:35:58.762Z,101996.38
2023-04-05T18:38:26.395Z,102004.03
2023-04-05T18:41:01.066Z,102004.72
2023-04-05T18:43:27.990Z,102007.06
2023-04-05T18:45:54.952Z,102009.41
2023-04-05T18:48:24.164Z,102009.06
2023-04-05T18:50:55.197Z,102010.44
2023-04-05T18:53:22.703Z,102014.41
2023-04-05T18:55:51.490Z,102013.09
2023-04-05T18:58:18.634Z,102016.41
2023-04-05T19:00:45.549Z,102017.75
2023-04-05T19:03:12.579Z,102020.72
2023-04-05T19:05:39.631Z,102013.47
2023-04-05T19:08:07.905Z,102019.94
2023-04-05T19:10:34.854Z,102021.44
2023-04-05T19:13:01.756Z,102024.06
2023-04-05T19:15:28.780Z,102024.44
2023-04-05T19:17:55.776Z,102024.09
2023-04-05T19:20:22.709Z,102028.56
2023-04-05T19:22:49.696Z,102025.09
2023-04-05T19:25:18.292Z,102032.19
2023-04-05T19:27:45.411Z,102033.38
2023-04-05T19:30:12.803Z,102039.03
2023-04-05T19:32:39.760Z,102038.50
2023-04-05T19:35:11.525Z,102045.47
2023-04-05T19:37:38.591Z,102041.34
2023-04-05T19:40:07.845Z,102042.28
2023-04-05T19:42:36.115Z,102051.75
2023-04-05T19:45:07.933Z,102044.63
2023-04-05T19:47:35.891Z,102045.25
2023-04-05T19:50:17.641Z,102038.97
2023-04-05T19:52:48.238Z,102038.31
2023-04-05T19:55:32.208Z,102040.44
2023-04-05T19:58:02.998Z,102039.94
2023-04-05T20:00:36.221Z,102037.13
2023-04-05T20:03:16.872Z,102037.94
2023-04-05T20:06:02.286Z,102030.31
2023-04-05T20:08:30.268Z,102037.91
2023-04-05T20:10:57.546Z,102037.03
2023-04-05T20:13:26.416Z,102037.69
2023-04-05T20:15:54.155Z,102044.78
2023-04-05T20:18:24.064Z,102046.13
2023-04-05T20:20:53.420Z,102042.50
2023-04-05T20:23:22.468Z,102038.84
2023-04-05T20:25:51.025Z,102028.28
2023-04-05T20:28:37.726Z,102030.91
2023-04-05T20:31:08.761Z,102031.53
2023-04-05T20:33:48.317Z,102025.56
2023-04-05T20:36:19.139Z,102023.25
2023-04-05T20:38:48.228Z,102028.84
2023-04-05T20:41:17.859Z,102029.28
2023-04-05T20:43:47.174Z,102030.72
2023-04-05T20:46:15.897Z,102026.75
2023-04-05T20:48:44.196Z,102023.63
2023-04-05T20:51:11.276Z,102023.09
2023-04-05T20:53:39.097Z,102027.19
2023-04-05T20:56:08.607Z,102021.41
2023-04-05T20:58:37.500Z,102012.94
2023-04-05T21:01:07.139Z,102008.13
2023-04-05T21:03:37.035Z,102014.72
2023-04-05T21:06:07.164Z,102005.28
2023-04-05T21:08:36.635Z,102011.72
2023-04-05T21:11:03.974Z,102006.75
2023-04-05T21:13:31.011Z,102010.84
2023-04-05T21:15:58.723Z,102000.44
2023-04-05T21:18:27.108Z,102003.53
2023-04-05T21:20:54.762Z,102011.63
2023-04-05T21:23:26.841Z,102001.53
2023-04-05T21:25:54.789Z,102005.13
2023-04-05T21:28:22.792Z,102007.28
2023-04-05T21:30:49.886Z,101998.69
2023-04-05T21:33:17.519Z,101999.00
2023-04-05T21:35:45.950Z,102000.97
2023-04-05T21:38:15.056Z,102000.97
2023-04-05T21:40:44.432Z,101997.63
2023-04-05T21:43:11.493Z,101995.97
2023-04-05T21:45:38.405Z,101995.31
2023-04-05T21:48:06.251Z,101993.66
2023-04-05T21:50:33.496Z,101994.09
2023-04-05T21:53:01.713Z,101990.78
2023-04-05T21:55:28.760Z,101988.63
2023-04-05T21:57:55.856Z,101983.63
2023-04-05T22:00:23.551Z,101983.94
2023-04-05T22:02:50.818Z,101988.53
2023-04-05T22:05:29.635Z,101988.72
2023-04-05T22:08:06.283Z,101980.97
2023-04-05T22:10:33.818Z,101975.34
2023-04-05T22:13:00.822Z,101972.72
2023-04-05T22:15:27.703Z,101977.16
2023-04-05T22:17:54.784Z,101970.41
2023-04-05T22:20:21.746Z,101972.34
2023-04-05T22:22:48.744Z,101971.84
2023-04-05T22:25:17.192Z,101971.47
2023-04-05T22:27:44.209Z,101965.81
2023-04-05T22:30:12.029Z,101966.94
2023-04-05T22:32:38.970Z,101961.97
2023-04-05T22:35:07.105Z,101964.59
2023-04-05T22:37:36.443Z,101967.25
2023-04-05T22:40:04.644Z,101970.88
2023-04-05T22:42:32.979Z,101965.91
2023-04-05T22:45:00.002Z,101974.09
2023-04-05T22:47:27.150Z,101970.78
2023-04-05T22:49:54.148Z,101968.41
2023-04-05T22:52:21.447Z,101977.31
2023-04-05T22:54:48.427Z,101958.19
2023-04-05T22:57:15.707Z,101965.44
2023-04-05T22:59:44.071Z,101959.44
2023-04-05T23:02:12.243Z,101962.41
2023-04-05T23:04:39.351Z,101956.59
2023-04-05T23:07:06.344Z,101954.25
2023-04-05T23:09:33.256Z,101951.09
2023-04-05T23:12:00.177Z,101942.81
2023-04-05T23:14:27.350Z,101943.44
2023-04-05T23:16:55.616Z,101942.88
2023-04-05T23:19:22.585Z,101938.06
2023-04-05T23:21:49.664Z,101939.34
2023-04-05T23:24:16.632Z,101939.63
2023-04-05T23:26:43.506Z,101935.50
2023-04-05T23:29:10.620Z,101931.34
2023-04-05T23:31:37.640Z,101930.81
2023-04-05T23:34:06.185Z,101922.22
2023-04-05T23:36:33.091Z,101921.09
2023-04-05T23:39:00.615Z,101924.44
2023-04-05T23:41:27.744Z,101920.28
2023-04-05T23:43:54.696Z,101924.72
2023-04-05T23:46:22.232Z,101916.66
2023-04-05T23:48:49.273Z,101913.34
2023-04-05T23:51:17.724Z,101910.03
2023-04-05T23:53:44.694Z,101909.50
2023-04-05T23:56:11.650Z,101908.16
2023-04-05T23:58:38.753Z,101903.16
